sensor_id;sensor_type;location;lat;lon;timestamp;P1;durP1;ratioP1;P2;durP2;ratioP2
5807;SDS011;2930;42.678;23.312;2022-11-03T00:01:08;2.15;;;2.05;;
5807;SDS011;2930;42.678;23.312;2022-11-03T00:03:34;1.58;;;1.48;;
5807;SDS011;2930;42.678;23.312;2022-11-03T00:06:00;4.75;;;1.65;;
5807;SDS011;2930;42.678;23.312;2022-11-03T00:08:38;6.05;;;1.65;;
5807;SDS011;2930;42.678;23.312;2022-11-03T00:11:06;4.53;;;1.70;;
5807;SDS011;2930;42.678;23.312;2022-11-03T00:13:37;7.00;;;1.63;;
5807;SDS011;2930;42.678;23.312;2022-11-03T00:16:04;2.10;;;1.55;;
5807;SDS011;2930;42.678;23.312;2022-11-03T00:18:31;1.80;;;1.65;;
5807;SDS011;2930;42.678;23.312;2022-11-03T00:21:04;1.55;;;1.45;;
5807;SDS011;2930;42.678;23.312;2022-11-03T00:23:34;2.03;;;1.92;;
5807;SDS011;2930;42.678;23.312;2022-11-03T00:26:11;1.30;;;1.30;;
5807;SDS011;2930;42.678;23.312;2022-11-03T00:28:37;1.90;;;1.80;;
5807;SDS011;2930;42.678;23.312;2022-11-03T00:31:08;2.95;;;1.80;;
5807;SDS011;2930;42.678;23.312;2022-11-03T00:33:36;1.90;;;1.38;;
5807;SDS011;2930;42.678;23.312;2022-11-03T00:36:03;1.95;;;1.20;;
5807;SDS011;2930;42.678;23.312;2022-11-03T00:38:30;4.93;;;1.98;;
5807;SDS011;2930;42.678;23.312;2022-11-03T00:40:59;2.08;;;1.92;;
5807;SDS011;2930;42.678;23.312;2022-11-03T00:43:26;2.40;;;1.92;;
5807;SDS011;2930;42.678;23.312;2022-11-03T00:45:54;1.70;;;1.60;;
5807;SDS011;2930;42.678;23.312;2022-11-03T00:48:20;2.08;;;1.92;;
5807;SDS011;2930;42.678;23.312;2022-11-03T00:51:02;3.13;;;2.65;;
5807;SDS011;2930;42.678;23.312;2022-11-03T00:53:30;2.10;;;1.92;;
5807;SDS011;2930;42.678;23.312;2022-11-03T00:55:58;3.08;;;2.00;;
5807;SDS011;2930;42.678;23.312;2022-11-03T00:58:24;2.60;;;2.40;;
5807;SDS011;2930;42.678;23.312;2022-11-03T01:00:50;3.03;;;1.83;;
5807;SDS011;2930;42.678;23.312;2022-11-03T01:03:22;2.03;;;1.83;;
5807;SDS011;2930;42.678;23.312;2022-11-03T01:05:48;2.10;;;1.90;;
5807;SDS011;2930;42.678;23.312;2022-11-03T01:08:32;2.47;;;2.30;;
5807;SDS011;2930;42.678;23.312;2022-11-03T01:14:09;3.28;;;2.97;;
5807;SDS011;2930;42.678;23.312;2022-11-03T01:16:36;2.50;;;2.30;;
5807;SDS011;2930;42.678;23.312;2022-11-03T01:19:02;2.67;;;2.40;;
5807;SDS011;2930;42.678;23.312;2022-11-03T01:21:28;4.20;;;2.08;;
5807;SDS011;2930;42.678;23.312;2022-11-03T01:23:54;2.65;;;2.35;;
5807;SDS011;2930;42.678;23.312;2022-11-03T01:26:20;4.63;;;2.45;;
5807;SDS011;2930;42.678;23.312;2022-11-03T01:28:46;7.55;;;2.72;;
5807;SDS011;2930;42.678;23.312;2022-11-03T01:31:13;3.50;;;2.25;;
5807;SDS011;2930;42.678;23.312;2022-11-03T01:33:44;5.25;;;2.22;;
5807;SDS011;2930;42.678;23.312;2022-11-03T01:36:10;4.38;;;2.38;;
5807;SDS011;2930;42.678;23.312;2022-11-03T01:38:37;10.07;;;2.67;;
5807;SDS011;2930;42.678;23.312;2022-11-03T01:41:04;3.40;;;3.00;;
5807;SDS011;2930;42.678;23.312;2022-11-03T01:43:31;3.03;;;2.50;;
5807;SDS011;2930;42.678;23.312;2022-11-03T01:49:00;8.50;;;3.08;;
5807;SDS011;2930;42.678;23.312;2022-11-03T01:51:27;3.17;;;2.88;;
5807;SDS011;2930;42.678;23.312;2022-11-03T01:53:54;4.10;;;2.53;;
5807;SDS011;2930;42.678;23.312;2022-11-03T01:56:22;4.70;;;2.88;;
5807;SDS011;2930;42.678;23.312;2022-11-03T01:58:49;3.85;;;3.55;;
5807;SDS011;2930;42.678;23.312;2022-11-03T02:01:17;3.58;;;3.30;;
5807;SDS011;2930;42.678;23.312;2022-11-03T02:03:46;5.13;;;3.75;;
5807;SDS011;2930;42.678;23.312;2022-11-03T02:06:17;11.55;;;3.28;;
5807;SDS011;2930;42.678;23.312;2022-11-03T02:08:48;7.00;;;3.72;;
5807;SDS011;2930;42.678;23.312;2022-11-03T02:11:20;8.00;;;4.10;;
5807;SDS011;2930;42.678;23.312;2022-11-03T02:14:09;5.22;;;3.42;;
5807;SDS011;2930;42.678;23.312;2022-11-03T02:16:36;4.80;;;3.60;;
5807;SDS011;2930;42.678;23.312;2022-11-03T02:19:02;7.38;;;4.15;;
5807;SDS011;2930;42.678;23.312;2022-11-03T02:27:24;3.80;;;3.50;;
5807;SDS011;2930;42.678;23.312;2022-11-03T02:29:50;8.60;;;3.58;;
5807;SDS011;2930;42.678;23.312;2022-11-03T02:34:48;7.00;;;3.60;;
5807;SDS011;2930;42.678;23.312;2022-11-03T02:37:35;7.38;;;3.90;;
5807;SDS011;2930;42.678;23.312;2022-11-03T02:40:06;4.38;;;3.97;;
5807;SDS011;2930;42.678;23.312;2022-11-03T02:42:37;6.32;;;4.35;;
5807;SDS011;2930;42.678;23.312;2022-11-03T02:45:06;9.90;;;4.18;;
5807;SDS011;2930;42.678;23.312;2022-11-03T02:47:35;7.20;;;3.90;;
5807;SDS011;2930;42.678;23.312;2022-11-03T02:50:03;5.43;;;4.05;;
5807;SDS011;2930;42.678;23.312;2022-11-03T02:52:42;5.72;;;3.70;;
5807;SDS011;2930;42.678;23.312;2022-11-03T02:55:16;5.32;;;4.22;;
5807;SDS011;2930;42.678;23.312;2022-11-03T02:57:47;3.90;;;3.70;;
5807;SDS011;2930;42.678;23.312;2022-11-03T03:00:19;3.67;;;3.38;;
5807;SDS011;2930;42.678;23.312;2022-11-03T03:05:29;8.02;;;4.50;;
5807;SDS011;2930;42.678;23.312;2022-11-03T03:08:01;4.47;;;3.83;;
5807;SDS011;2930;42.678;23.312;2022-11-03T03:10:31;6.18;;;3.65;;
5807;SDS011;2930;42.678;23.312;2022-11-03T03:13:00;5.20;;;3.67;;
5807;SDS011;2930;42.678;23.312;2022-11-03T03:23:23;3.75;;;3.20;;
5807;SDS011;2930;42.678;23.312;2022-11-03T03:25:59;6.18;;;3.10;;
5807;SDS011;2930;42.678;23.312;2022-11-03T03:28:48;4.55;;;3.72;;
5807;SDS011;2930;42.678;23.312;2022-11-03T03:31:18;6.20;;;3.45;;
5807;SDS011;2930;42.678;23.312;2022-11-03T03:33:46;3.75;;;3.15;;
5807;SDS011;2930;42.678;23.312;2022-11-03T03:36:15;5.57;;;3.80;;
5807;SDS011;2930;42.678;23.312;2022-11-03T03:38:45;5.82;;;3.95;;
5807;SDS011;2930;42.678;23.312;2022-11-03T03:41:18;6.15;;;3.72;;
5807;SDS011;2930;42.678;23.312;2022-11-03T03:43:47;6.53;;;3.88;;
5807;SDS011;2930;42.678;23.312;2022-11-03T03:46:15;4.70;;;3.90;;
5807;SDS011;2930;42.678;23.312;2022-11-03T03:48:42;8.13;;;4.00;;
5807;SDS011;2930;42.678;23.312;2022-11-03T03:51:08;3.22;;;2.95;;
5807;SDS011;2930;42.678;23.312;2022-11-03T03:53:35;5.88;;;3.85;;
5807;SDS011;2930;42.678;23.312;2022-11-03T03:56:01;8.45;;;3.75;;
5807;SDS011;2930;42.678;23.312;2022-11-03T03:58:29;4.57;;;4.05;;
5807;SDS011;2930;42.678;23.312;2022-11-03T04:00:55;4.82;;;3.47;;
5807;SDS011;2930;42.678;23.312;2022-11-03T04:03:22;6.93;;;3.95;;
5807;SDS011;2930;42.678;23.312;2022-11-03T04:05:50;5.28;;;4.30;;
5807;SDS011;2930;42.678;23.312;2022-11-03T04:08:17;3.90;;;3.65;;
5807;SDS011;2930;42.678;23.312;2022-11-03T04:10:44;6.30;;;4.28;;
5807;SDS011;2930;42.678;23.312;2022-11-03T04:13:28;5.43;;;4.47;;
5807;SDS011;2930;42.678;23.312;2022-11-03T04:16:13;5.22;;;4.18;;
5807;SDS011;2930;42.678;23.312;2022-11-03T04:18:58;8.45;;;4.38;;
5807;SDS011;2930;42.678;23.312;2022-11-03T04:21:42;8.65;;;3.95;;
5807;SDS011;2930;42.678;23.312;2022-11-03T04:24:26;9.07;;;5.70;;
5807;SDS011;2930;42.678;23.312;2022-11-03T04:26:52;12.85;;;4.50;;
5807;SDS011;2930;42.678;23.312;2022-11-03T04:29:19;8.63;;;4.47;;
5807;SDS011;2930;42.678;23.312;2022-11-03T04:31:44;7.50;;;4.15;;
5807;SDS011;2930;42.678;23.312;2022-11-03T04:34:10;7.07;;;4.45;;
5807;SDS011;2930;42.678;23.312;2022-11-03T04:36:37;6.03;;;4.43;;
5807;SDS011;2930;42.678;23.312;2022-11-03T04:39:08;5.10;;;4.30;;
5807;SDS011;2930;42.678;23.312;2022-11-03T04:41:42;6.20;;;3.60;;
5807;SDS011;2930;42.678;23.312;2022-11-03T04:44:13;7.03;;;4.50;;
5807;SDS011;2930;42.678;23.312;2022-11-03T04:46:40;5.57;;;3.90;;
5807;SDS011;2930;42.678;23.312;2022-11-03T04:49:09;7.90;;;4.55;;
5807;SDS011;2930;42.678;23.312;2022-11-03T04:51:40;5.35;;;4.30;;
5807;SDS011;2930;42.678;23.312;2022-11-03T04:54:13;7.50;;;4.65;;
5807;SDS011;2930;42.678;23.312;2022-11-03T04:56:42;5.28;;;4.20;;
5807;SDS011;2930;42.678;23.312;2022-11-03T04:59:09;4.75;;;4.22;;
5807;SDS011;2930;42.678;23.312;2022-11-03T05:01:36;8.38;;;4.53;;
5807;SDS011;2930;42.678;23.312;2022-11-03T05:04:04;4.35;;;3.95;;
5807;SDS011;2930;42.678;23.312;2022-11-03T05:06:36;5.40;;;4.60;;
5807;SDS011;2930;42.678;23.312;2022-11-03T05:09:06;12.85;;;5.75;;
5807;SDS011;2930;42.678;23.312;2022-11-03T05:11:47;8.75;;;4.95;;
5807;SDS011;2930;42.678;23.312;2022-11-03T05:14:14;6.50;;;3.80;;
5807;SDS011;2930;42.678;23.312;2022-11-03T05:16:42;9.13;;;4.47;;
5807;SDS011;2930;42.678;23.312;2022-11-03T05:19:17;6.70;;;4.30;;
5807;SDS011;2930;42.678;23.312;2022-11-03T05:21:44;5.13;;;4.22;;
5807;SDS011;2930;42.678;23.312;2022-11-03T05:24:14;7.80;;;4.63;;
5807;SDS011;2930;42.678;23.312;2022-11-03T05:26:40;8.43;;;5.47;;
5807;SDS011;2930;42.678;23.312;2022-11-03T05:31:39;8.75;;;5.40;;
5807;SDS011;2930;42.678;23.312;2022-11-03T05:34:19;10.05;;;5.53;;
5807;SDS011;2930;42.678;23.312;2022-11-03T05:39:34;7.70;;;5.25;;
5807;SDS011;2930;42.678;23.312;2022-11-03T05:44:55;7.85;;;5.20;;
5807;SDS011;2930;42.678;23.312;2022-11-03T05:47:27;7.05;;;5.20;;
5807;SDS011;2930;42.678;23.312;2022-11-03T05:50:20;9.60;;;5.65;;
5807;SDS011;2930;42.678;23.312;2022-11-03T05:52:55;11.02;;;5.03;;
5807;SDS011;2930;42.678;23.312;2022-11-03T05:55:29;11.90;;;5.75;;
5807;SDS011;2930;42.678;23.312;2022-11-03T05:58:03;9.30;;;5.30;;
5807;SDS011;2930;42.678;23.312;2022-11-03T06:00:37;10.70;;;4.97;;
5807;SDS011;2930;42.678;23.312;2022-11-03T06:03:06;14.00;;;5.82;;
5807;SDS011;2930;42.678;23.312;2022-11-03T06:05:33;12.30;;;5.85;;
5807;SDS011;2930;42.678;23.312;2022-11-03T06:08:00;6.88;;;5.97;;
5807;SDS011;2930;42.678;23.312;2022-11-03T06:10:39;14.00;;;6.63;;
5807;SDS011;2930;42.678;23.312;2022-11-03T06:13:19;7.63;;;5.53;;
5807;SDS011;2930;42.678;23.312;2022-11-03T06:15:56;6.45;;;5.38;;
5807;SDS011;2930;42.678;23.312;2022-11-03T06:18:24;9.65;;;6.13;;
5807;SDS011;2930;42.678;23.312;2022-11-03T06:20:55;10.32;;;6.43;;
5807;SDS011;2930;42.678;23.312;2022-11-03T06:23:23;8.20;;;6.05;;
5807;SDS011;2930;42.678;23.312;2022-11-03T06:25:51;7.10;;;5.72;;
5807;SDS011;2930;42.678;23.312;2022-11-03T06:28:30;9.15;;;6.75;;
5807;SDS011;2930;42.678;23.312;2022-11-03T06:31:00;10.57;;;6.30;;
5807;SDS011;2930;42.678;23.312;2022-11-03T06:33:29;10.80;;;6.82;;
5807;SDS011;2930;42.678;23.312;2022-11-03T06:36:00;10.82;;;6.18;;
5807;SDS011;2930;42.678;23.312;2022-11-03T06:38:35;8.55;;;6.68;;
5807;SDS011;2930;42.678;23.312;2022-11-03T06:41:00;10.82;;;6.78;;
5807;SDS011;2930;42.678;23.312;2022-11-03T06:46:11;14.15;;;7.55;;
5807;SDS011;2930;42.678;23.312;2022-11-03T06:48:45;10.55;;;7.20;;
5807;SDS011;2930;42.678;23.312;2022-11-03T06:51:15;12.25;;;7.70;;
5807;SDS011;2930;42.678;23.312;2022-11-03T06:53:47;11.63;;;7.80;;
5807;SDS011;2930;42.678;23.312;2022-11-03T06:56:24;10.25;;;6.97;;
5807;SDS011;2930;42.678;23.312;2022-11-03T06:58:53;12.40;;;7.25;;
5807;SDS011;2930;42.678;23.312;2022-11-03T07:01:29;10.43;;;7.20;;
5807;SDS011;2930;42.678;23.312;2022-11-03T07:03:57;10.02;;;7.10;;
5807;SDS011;2930;42.678;23.312;2022-11-03T07:06:28;12.60;;;7.43;;
5807;SDS011;2930;42.678;23.312;2022-11-03T07:08:59;13.65;;;7.30;;
5807;SDS011;2930;42.678;23.312;2022-11-03T07:11:29;10.55;;;7.65;;
5807;SDS011;2930;42.678;23.312;2022-11-03T07:14:10;12.90;;;7.95;;
5807;SDS011;2930;42.678;23.312;2022-11-03T07:16:46;11.70;;;8.38;;
5807;SDS011;2930;42.678;23.312;2022-11-03T07:19:19;13.82;;;7.88;;
5807;SDS011;2930;42.678;23.312;2022-11-03T07:21:58;13.30;;;7.65;;
5807;SDS011;2930;42.678;23.312;2022-11-03T07:24:39;14.25;;;7.63;;
5807;SDS011;2930;42.678;23.312;2022-11-03T07:29:59;12.55;;;7.93;;
5807;SDS011;2930;42.678;23.312;2022-11-03T07:32:38;14.38;;;8.48;;
5807;SDS011;2930;42.678;23.312;2022-11-03T07:38:10;11.32;;;7.53;;
5807;SDS011;2930;42.678;23.312;2022-11-03T07:40:38;14.82;;;8.13;;
5807;SDS011;2930;42.678;23.312;2022-11-03T07:43:18;9.02;;;8.07;;
5807;SDS011;2930;42.678;23.312;2022-11-03T07:45:53;11.00;;;7.78;;
5807;SDS011;2930;42.678;23.312;2022-11-03T07:50:47;11.85;;;7.80;;
5807;SDS011;2930;42.678;23.312;2022-11-03T07:53:19;12.95;;;9.13;;
5807;SDS011;2930;42.678;23.312;2022-11-03T07:56:12;9.30;;;7.68;;
5807;SDS011;2930;42.678;23.312;2022-11-03T07:58:44;10.77;;;8.52;;
5807;SDS011;2930;42.678;23.312;2022-11-03T08:01:35;13.45;;;8.98;;
5807;SDS011;2930;42.678;23.312;2022-11-03T08:04:02;13.15;;;8.13;;
5807;SDS011;2930;42.678;23.312;2022-11-03T08:06:30;14.23;;;8.95;;
5807;SDS011;2930;42.678;23.312;2022-11-03T08:08:56;16.30;;;8.63;;
5807;SDS011;2930;42.678;23.312;2022-11-03T08:11:22;10.65;;;8.55;;
5807;SDS011;2930;42.678;23.312;2022-11-03T08:13:49;13.77;;;9.43;;
5807;SDS011;2930;42.678;23.312;2022-11-03T08:16:15;13.07;;;8.88;;
5807;SDS011;2930;42.678;23.312;2022-11-03T08:18:41;12.32;;;9.00;;
5807;SDS011;2930;42.678;23.312;2022-11-03T08:21:07;10.98;;;9.10;;
5807;SDS011;2930;42.678;23.312;2022-11-03T08:23:33;12.15;;;9.13;;
5807;SDS011;2930;42.678;23.312;2022-11-03T08:25:58;11.43;;;8.20;;
5807;SDS011;2930;42.678;23.312;2022-11-03T08:28:24;12.50;;;8.75;;
5807;SDS011;2930;42.678;23.312;2022-11-03T08:30:50;13.35;;;9.20;;
5807;SDS011;2930;42.678;23.312;2022-11-03T08:33:16;10.60;;;8.32;;
5807;SDS011;2930;42.678;23.312;2022-11-03T08:35:42;12.55;;;8.88;;
5807;SDS011;2930;42.678;23.312;2022-11-03T08:38:07;13.02;;;8.65;;
5807;SDS011;2930;42.678;23.312;2022-11-03T08:40:33;12.00;;;8.40;;
5807;SDS011;2930;42.678;23.312;2022-11-03T08:42:59;12.35;;;7.93;;
5807;SDS011;2930;42.678;23.312;2022-11-03T08:45:27;11.48;;;7.88;;
5807;SDS011;2930;42.678;23.312;2022-11-03T08:47:54;8.00;;;7.28;;
5807;SDS011;2930;42.678;23.312;2022-11-03T08:50:20;9.25;;;8.25;;
5807;SDS011;2930;42.678;23.312;2022-11-03T08:52:46;8.95;;;7.80;;
5807;SDS011;2930;42.678;23.312;2022-11-03T08:55:11;10.30;;;7.18;;
5807;SDS011;2930;42.678;23.312;2022-11-03T08:57:37;11.60;;;7.40;;
5807;SDS011;2930;42.678;23.312;2022-11-03T09:00:03;10.10;;;7.70;;
5807;SDS011;2930;42.678;23.312;2022-11-03T09:02:30;11.50;;;7.85;;
5807;SDS011;2930;42.678;23.312;2022-11-03T09:04:56;9.05;;;7.68;;
5807;SDS011;2930;42.678;23.312;2022-11-03T09:07:21;10.50;;;7.53;;
5807;SDS011;2930;42.678;23.312;2022-11-03T09:09:47;8.73;;;6.60;;
5807;SDS011;2930;42.678;23.312;2022-11-03T09:12:13;10.60;;;6.53;;
5807;SDS011;2930;42.678;23.312;2022-11-03T09:14:38;10.50;;;7.68;;
5807;SDS011;2930;42.678;23.312;2022-11-03T09:17:04;11.00;;;7.82;;
5807;SDS011;2930;42.678;23.312;2022-11-03T09:19:30;9.30;;;8.00;;
5807;SDS011;2930;42.678;23.312;2022-11-03T09:21:55;9.30;;;8.18;;
5807;SDS011;2930;42.678;23.312;2022-11-03T09:24:21;8.95;;;7.28;;
5807;SDS011;2930;42.678;23.312;2022-11-03T09:26:47;13.10;;;6.70;;
5807;SDS011;2930;42.678;23.312;2022-11-03T09:29:12;12.70;;;7.95;;
5807;SDS011;2930;42.678;23.312;2022-11-03T09:31:38;7.88;;;6.75;;
5807;SDS011;2930;42.678;23.312;2022-11-03T09:34:04;9.65;;;7.18;;
5807;SDS011;2930;42.678;23.312;2022-11-03T09:36:30;11.05;;;6.72;;
5807;SDS011;2930;42.678;23.312;2022-11-03T09:38:55;8.25;;;6.70;;
5807;SDS011;2930;42.678;23.312;2022-11-03T09:41:21;7.40;;;6.75;;
5807;SDS011;2930;42.678;23.312;2022-11-03T09:43:47;9.38;;;6.80;;
5807;SDS011;2930;42.678;23.312;2022-11-03T09:46:13;9.63;;;6.50;;
5807;SDS011;2930;42.678;23.312;2022-11-03T09:48:41;11.38;;;6.43;;
5807;SDS011;2930;42.678;23.312;2022-11-03T09:51:11;6.65;;;6.05;;
5807;SDS011;2930;42.678;23.312;2022-11-03T09:53:42;8.57;;;6.25;;
5807;SDS011;2930;42.678;23.312;2022-11-03T09:56:11;7.45;;;6.60;;
5807;SDS011;2930;42.678;23.312;2022-11-03T09:58:37;6.70;;;5.75;;
5807;SDS011;2930;42.678;23.312;2022-11-03T10:01:02;11.30;;;6.50;;
5807;SDS011;2930;42.678;23.312;2022-11-03T10:03:28;10.52;;;7.18;;
5807;SDS011;2930;42.678;23.312;2022-11-03T10:05:54;7.85;;;6.32;;
5807;SDS011;2930;42.678;23.312;2022-11-03T10:08:21;10.65;;;6.93;;
5807;SDS011;2930;42.678;23.312;2022-11-03T10:10:52;10.45;;;7.65;;
5807;SDS011;2930;42.678;23.312;2022-11-03T10:13:52;8.30;;;6.30;;
5807;SDS011;2930;42.678;23.312;2022-11-03T10:16:16;6.80;;;5.57;;
5807;SDS011;2930;42.678;23.312;2022-11-03T10:18:44;7.53;;;6.50;;
5807;SDS011;2930;42.678;23.312;2022-11-03T10:21:19;8.80;;;6.57;;
5807;SDS011;2930;42.678;23.312;2022-11-03T10:23:49;9.73;;;6.25;;
5807;SDS011;2930;42.678;23.312;2022-11-03T10:26:15;7.95;;;5.80;;
5807;SDS011;2930;42.678;23.312;2022-11-03T10:31:37;7.47;;;6.28;;
5807;SDS011;2930;42.678;23.312;2022-11-03T10:34:05;6.85;;;6.18;;
5807;SDS011;2930;42.678;23.312;2022-11-03T10:36:50;8.18;;;6.43;;
5807;SDS011;2930;42.678;23.312;2022-11-03T10:39:41;10.75;;;6.88;;
5807;SDS011;2930;42.678;23.312;2022-11-03T10:44:44;9.20;;;6.45;;
5807;SDS011;2930;42.678;23.312;2022-11-03T10:47:21;5.88;;;4.88;;
5807;SDS011;2930;42.678;23.312;2022-11-03T10:49:47;7.05;;;5.13;;
5807;SDS011;2930;42.678;23.312;2022-11-03T10:54:39;5.55;;;5.03;;
5807;SDS011;2930;42.678;23.312;2022-11-03T10:57:04;5.35;;;4.82;;
5807;SDS011;2930;42.678;23.312;2022-11-03T10:59:31;6.80;;;5.03;;
5807;SDS011;2930;42.678;23.312;2022-11-03T11:01:58;8.40;;;5.90;;
5807;SDS011;2930;42.678;23.312;2022-11-03T11:04:24;12.75;;;5.60;;
5807;SDS011;2930;42.678;23.312;2022-11-03T11:06:50;5.47;;;4.85;;
5807;SDS011;2930;42.678;23.312;2022-11-03T11:09:20;5.00;;;4.00;;
5807;SDS011;2930;42.678;23.312;2022-11-03T11:12:02;4.15;;;3.50;;
5807;SDS011;2930;42.678;23.312;2022-11-03T11:14:50;5.35;;;3.42;;
5807;SDS011;2930;42.678;23.312;2022-11-03T11:22:46;7.10;;;4.40;;
5807;SDS011;2930;42.678;23.312;2022-11-03T11:25:13;4.55;;;3.67;;
5807;SDS011;2930;42.678;23.312;2022-11-03T11:30:05;5.13;;;3.47;;
5807;SDS011;2930;42.678;23.312;2022-11-03T11:32:58;4.05;;;3.08;;
5807;SDS011;2930;42.678;23.312;2022-11-03T11:37:52;4.28;;;2.50;;
5807;SDS011;2930;42.678;23.312;2022-11-03T11:43:24;1.67;;;1.50;;
5807;SDS011;2930;42.678;23.312;2022-11-03T11:51:39;4.32;;;2.28;;
5807;SDS011;2930;42.678;23.312;2022-11-03T11:54:05;3.72;;;2.22;;
5807;SDS011;2930;42.678;23.312;2022-11-03T11:56:39;3.47;;;1.85;;
5807;SDS011;2930;42.678;23.312;2022-11-03T11:59:17;2.42;;;1.25;;
5807;SDS011;2930;42.678;23.312;2022-11-03T12:01:47;3.05;;;1.80;;
5807;SDS011;2930;42.678;23.312;2022-11-03T12:06:47;2.85;;;2.45;;
5807;SDS011;2930;42.678;23.312;2022-11-03T12:09:19;5.75;;;2.50;;
5807;SDS011;2930;42.678;23.312;2022-11-03T12:11:56;4.03;;;2.78;;
5807;SDS011;2930;42.678;23.312;2022-11-03T12:16:55;7.68;;;2.78;;
5807;SDS011;2930;42.678;23.312;2022-11-03T12:19:43;3.67;;;2.55;;
5807;SDS011;2930;42.678;23.312;2022-11-03T12:22:10;5.93;;;2.42;;
5807;SDS011;2930;42.678;23.312;2022-11-03T12:27:17;2.50;;;2.20;;
5807;SDS011;2930;42.678;23.312;2022-11-03T12:29:42;2.20;;;1.98;;
5807;SDS011;2930;42.678;23.312;2022-11-03T12:32:08;4.35;;;1.90;;
5807;SDS011;2930;42.678;23.312;2022-11-03T12:34:34;4.50;;;1.85;;
5807;SDS011;2930;42.678;23.312;2022-11-03T12:37:00;3.75;;;2.08;;
5807;SDS011;2930;42.678;23.312;2022-11-03T12:39:26;2.53;;;1.83;;
5807;SDS011;2930;42.678;23.312;2022-11-03T12:41:51;4.18;;;1.90;;
5807;SDS011;2930;42.678;23.312;2022-11-03T12:44:17;3.97;;;2.22;;
5807;SDS011;2930;42.678;23.312;2022-11-03T12:46:42;2.60;;;1.75;;
5807;SDS011;2930;42.678;23.312;2022-11-03T12:49:08;2.97;;;2.10;;
5807;SDS011;2930;42.678;23.312;2022-11-03T12:51:34;4.30;;;1.95;;
5807;SDS011;2930;42.678;23.312;2022-11-03T12:53:59;2.30;;;2.10;;
5807;SDS011;2930;42.678;23.312;2022-11-03T12:56:25;6.38;;;1.92;;
5807;SDS011;2930;42.678;23.312;2022-11-03T12:58:51;2.65;;;1.77;;
5807;SDS011;2930;42.678;23.312;2022-11-03T13:01:16;2.60;;;2.17;;
5807;SDS011;2930;42.678;23.312;2022-11-03T13:03:42;5.20;;;2.25;;
5807;SDS011;2930;42.678;23.312;2022-11-03T13:06:08;2.33;;;2.15;;
5807;SDS011;2930;42.678;23.312;2022-11-03T13:08:35;3.78;;;2.15;;
5807;SDS011;2930;42.678;23.312;2022-11-03T13:11:01;4.13;;;2.15;;
5807;SDS011;2930;42.678;23.312;2022-11-03T13:13:27;6.40;;;2.05;;
5807;SDS011;2930;42.678;23.312;2022-11-03T13:15:53;2.88;;;2.25;;
5807;SDS011;2930;42.678;23.312;2022-11-03T13:18:19;9.57;;;2.50;;
5807;SDS011;2930;42.678;23.312;2022-11-03T13:20:48;4.65;;;2.88;;
5807;SDS011;2930;42.678;23.312;2022-11-03T13:23:13;3.72;;;2.45;;
5807;SDS011;2930;42.678;23.312;2022-11-03T13:25:39;3.25;;;3.05;;
5807;SDS011;2930;42.678;23.312;2022-11-03T13:28:05;4.32;;;3.38;;
5807;SDS011;2930;42.678;23.312;2022-11-03T13:30:30;5.93;;;3.72;;
5807;SDS011;2930;42.678;23.312;2022-11-03T13:32:57;4.40;;;2.95;;
5807;SDS011;2930;42.678;23.312;2022-11-03T13:35:23;3.83;;;3.17;;
5807;SDS011;2930;42.678;23.312;2022-11-03T13:37:49;3.10;;;2.88;;
5807;SDS011;2930;42.678;23.312;2022-11-03T13:40:15;7.32;;;3.92;;
5807;SDS011;2930;42.678;23.312;2022-11-03T13:42:41;7.30;;;4.18;;
5807;SDS011;2930;42.678;23.312;2022-11-03T13:45:07;9.85;;;3.35;;
5807;SDS011;2930;42.678;23.312;2022-11-03T13:47:33;3.20;;;2.90;;
5807;SDS011;2930;42.678;23.312;2022-11-03T13:49:59;7.13;;;2.95;;
5807;SDS011;2930;42.678;23.312;2022-11-03T13:52:25;10.75;;;3.15;;
5807;SDS011;2930;42.678;23.312;2022-11-03T13:54:52;5.70;;;3.15;;
5807;SDS011;2930;42.678;23.312;2022-11-03T13:57:18;4.97;;;2.92;;
5807;SDS011;2930;42.678;23.312;2022-11-03T13:59:44;6.68;;;3.30;;
5807;SDS011;2930;42.678;23.312;2022-11-03T14:02:09;5.68;;;2.80;;
5807;SDS011;2930;42.678;23.312;2022-11-03T14:04:36;9.32;;;3.05;;
5807;SDS011;2930;42.678;23.312;2022-11-03T14:07:03;5.40;;;3.15;;
5807;SDS011;2930;42.678;23.312;2022-11-03T14:09:29;6.30;;;3.55;;
5807;SDS011;2930;42.678;23.312;2022-11-03T14:11:55;5.35;;;3.03;;
5807;SDS011;2930;42.678;23.312;2022-11-03T14:14:40;3.72;;;3.30;;
5807;SDS011;2930;42.678;23.312;2022-11-03T14:17:06;6.72;;;2.72;;
5807;SDS011;2930;42.678;23.312;2022-11-03T14:19:32;3.97;;;3.00;;
5807;SDS011;2930;42.678;23.312;2022-11-03T14:21:58;3.33;;;2.45;;
5807;SDS011;2930;42.678;23.312;2022-11-03T14:24:23;3.22;;;2.60;;
5807;SDS011;2930;42.678;23.312;2022-11-03T14:26:49;5.38;;;2.22;;
5807;SDS011;2930;42.678;23.312;2022-11-03T14:29:15;5.28;;;2.38;;
5807;SDS011;2930;42.678;23.312;2022-11-03T14:31:40;8.48;;;2.65;;
5807;SDS011;2930;42.678;23.312;2022-11-03T14:34:06;5.28;;;2.20;;
5807;SDS011;2930;42.678;23.312;2022-11-03T14:36:32;3.22;;;2.38;;
5807;SDS011;2930;42.678;23.312;2022-11-03T14:38:57;4.57;;;2.15;;
5807;SDS011;2930;42.678;23.312;2022-11-03T14:41:23;2.53;;;2.10;;
5807;SDS011;2930;42.678;23.312;2022-11-03T14:44:08;8.32;;;2.95;;
5807;SDS011;2930;42.678;23.312;2022-11-03T14:46:39;8.65;;;2.58;;
5807;SDS011;2930;42.678;23.312;2022-11-03T14:49:05;7.72;;;3.15;;
5807;SDS011;2930;42.678;23.312;2022-11-03T14:51:31;13.40;;;2.80;;
5807;SDS011;2930;42.678;23.312;2022-11-03T14:53:57;5.75;;;2.88;;
5807;SDS011;2930;42.678;23.312;2022-11-03T14:56:23;4.97;;;2.25;;
5807;SDS011;2930;42.678;23.312;2022-11-03T14:58:49;6.18;;;2.92;;
5807;SDS011;2930;42.678;23.312;2022-11-03T15:01:15;8.82;;;2.67;;
5807;SDS011;2930;42.678;23.312;2022-11-03T15:03:41;13.20;;;3.72;;
5807;SDS011;2930;42.678;23.312;2022-11-03T15:06:07;5.55;;;2.97;;
5807;SDS011;2930;42.678;23.312;2022-11-03T15:08:34;10.77;;;3.08;;
5807;SDS011;2930;42.678;23.312;2022-11-03T15:10:59;4.70;;;2.53;;
5807;SDS011;2930;42.678;23.312;2022-11-03T15:13:25;9.45;;;3.13;;
5807;SDS011;2930;42.678;23.312;2022-11-03T15:15:51;11.93;;;3.05;;
5807;SDS011;2930;42.678;23.312;2022-11-03T15:18:17;4.95;;;2.53;;
5807;SDS011;2930;42.678;23.312;2022-11-03T15:20:42;12.23;;;3.13;;
5807;SDS011;2930;42.678;23.312;2022-11-03T15:23:09;4.50;;;3.15;;
5807;SDS011;2930;42.678;23.312;2022-11-03T15:25:35;10.07;;;3.63;;
5807;SDS011;2930;42.678;23.312;2022-11-03T15:28:01;10.50;;;3.17;;
5807;SDS011;2930;42.678;23.312;2022-11-03T15:30:27;7.25;;;3.65;;
5807;SDS011;2930;42.678;23.312;2022-11-03T15:32:52;4.53;;;3.85;;
5807;SDS011;2930;42.678;23.312;2022-11-03T15:35:20;7.55;;;3.95;;
5807;SDS011;2930;42.678;23.312;2022-11-03T15:37:46;8.10;;;3.70;;
5807;SDS011;2930;42.678;23.312;2022-11-03T15:40:12;12.65;;;3.92;;
5807;SDS011;2930;42.678;23.312;2022-11-03T15:42:39;6.40;;;4.20;;
5807;SDS011;2930;42.678;23.312;2022-11-03T15:45:05;11.95;;;3.55;;
5807;SDS011;2930;42.678;23.312;2022-11-03T15:47:34;12.43;;;3.85;;
5807;SDS011;2930;42.678;23.312;2022-11-03T15:49:59;10.98;;;3.85;;
5807;SDS011;2930;42.678;23.312;2022-11-03T15:52:25;6.40;;;3.53;;
5807;SDS011;2930;42.678;23.312;2022-11-03T15:54:51;12.60;;;4.05;;
5807;SDS011;2930;42.678;23.312;2022-11-03T15:57:16;7.15;;;3.38;;
5807;SDS011;2930;42.678;23.312;2022-11-03T15:59:42;4.63;;;3.70;;
5807;SDS011;2930;42.678;23.312;2022-11-03T16:02:08;10.20;;;3.63;;
5807;SDS011;2930;42.678;23.312;2022-11-03T16:04:34;4.43;;;3.53;;
5807;SDS011;2930;42.678;23.312;2022-11-03T16:07:00;7.28;;;3.70;;
5807;SDS011;2930;42.678;23.312;2022-11-03T16:09:25;8.02;;;4.20;;
5807;SDS011;2930;42.678;23.312;2022-11-03T16:11:51;12.05;;;5.57;;
5807;SDS011;2930;42.678;23.312;2022-11-03T16:14:17;10.88;;;6.78;;
5807;SDS011;2930;42.678;23.312;2022-11-03T16:16:43;10.85;;;6.53;;
5807;SDS011;2930;42.678;23.312;2022-11-03T16:19:08;16.45;;;5.22;;
5807;SDS011;2930;42.678;23.312;2022-11-03T16:21:34;20.70;;;5.18;;
5807;SDS011;2930;42.678;23.312;2022-11-03T16:24:00;10.27;;;4.78;;
5807;SDS011;2930;42.678;23.312;2022-11-03T16:26:27;12.27;;;5.35;;
5807;SDS011;2930;42.678;23.312;2022-11-03T16:28:55;9.05;;;4.88;;